sensor_id;sensor_type;location;lat;lon;timestamp;pressure;altitude;pressure_sealevel;temperature;humidity
19624;BME280;9959;49.798;9.928;2023-04-29T00:00:54;99243.44;;;10.09;100.00
19624;BME280;9959;49.798;9.928;2023-04-29T00:03:21;99236.19;;;10.09;100.00
19624;BME280;9959;49.798;9.928;2023-04-29T00:05:48;99232.75;;;9.96;100.00
19624;BME280;9959;49.798;9.928;2023-04-29T00:08:15;99231.22;;;9.81;100.00
19624;BME280;9959;49.798;9.928;2023-04-29T00:10:42;99232.47;;;9.79;100.00
19624;BME280;9959;49.798;9.928;2023-04-29T00:13:09;99237.09;;;9.65;100.00
19624;BME280;9959;49.798;9.928;2023-04-29T00:15:37;99232.34;;;9.61;100.00
19624;BME280;9959;49.798;9.928;2023-04-29T00:18:05;99238.91;;;9.78;100.00
19624;BME280;9959;49.798;9.928;2023-04-29T00:20:31;99227.66;;;9.56;100.00
19624;BME280;9959;49.798;9.928;2023-04-29T00:22:58;99236.31;;;9.58;100.00
19624;BME280;9959;49.798;9.928;2023-04-29T00:25:25;99237.25;;;9.39;100.00
19624;BME280;9959;49.798;9.928;2023-04-29T00:27:52;99238.97;;;9.27;100.00
19624;BME280;9959;49.798;9.928;2023-04-29T00:30:19;99231.81;;;9.52;100.00
19624;BME280;9959;49.798;9.928;2023-04-29T00:32:46;99234.63;;;9.64;100.00
19624;BME280;9959;49.798;9.928;2023-04-29T00:35:13;99247.13;;;9.45;100.00
19624;BME280;9959;49.798;9.928;2023-04-29T00:37:39;99231.25;;;9.37;100.00
19624;BME280;9959;49.798;9.928;2023-04-29T00:40:07;99235.38;;;9.39;100.00
19624;BME280;9959;49.798;9.928;2023-04-29T00:42:34;99245.06;;;9.47;100.00
19624;BME280;9959;49.798;9.928;2023-04-29T00:45:01;99239.72;;;9.34;100.00
19624;BME280;9959;49.798;9.928;2023-04-29T00:47:28;99242.75;;;9.06;100.00
19624;BME280;9959;49.798;9.928;2023-04-29T00:49:55;99241.09;;;9.05;100.00
19624;BME280;9959;49.798;9.928;2023-04-29T00:52:22;99239.91;;;8.94;100.00
19624;BME280;9959;49.798;9.928;2023-04-29T00:54:49;99245.00;;;9.09;100.00
19624;BME280;9959;49.798;9.928;2023-04-29T00:57:18;99235.72;;;9.05;100.00
19624;BME280;9959;49.798;9.928;2023-04-29T00:59:45;99239.47;;;8.97;100.00
19624;BME280;9959;49.798;9.928;2023-04-29T01:02:12;99238.03;;;9.01;100.00
19624;BME280;9959;49.798;9.928;2023-04-29T01:04:39;99238.38;;;9.11;100.00
19624;BME280;9959;49.798;9.928;2023-04-29T01:07:17;99236.38;;;9.00;100.00
19624;BME280;9959;49.798;9.928;2023-04-29T01:10:03;99236.13;;;9.08;100.00
19624;BME280;9959;49.798;9.928;2023-04-29T01:15:04;99246.09;;;9.01;100.00
19624;BME280;9959;49.798;9.928;2023-04-29T01:17:39;99234.53;;;8.94;100.00
19624;BME280;9959;49.798;9.928;2023-04-29T01:20:08;99244.16;;;9.22;100.00
19624;BME280;9959;49.798;9.928;2023-04-29T01:22:35;99245.78;;;9.23;100.00
19624;BME280;9959;49.798;9.928;2023-04-29T01:25:05;99239.63;;;9.09;100.00
19624;BME280;9959;49.798;9.928;2023-04-29T01:27:36;99244.78;;;9.10;100.00
19624;BME280;9959;49.798;9.928;2023-04-29T01:30:32;99245.69;;;8.98;100.00
19624;BME280;9959;49.798;9.928;2023-04-29T01:43:31;99255.81;;;8.89;100.00
19624;BME280;9959;49.798;9.928;2023-04-29T01:46:01;99252.94;;;8.91;100.00
19624;BME280;9959;49.798;9.928;2023-04-29T01:48:30;99252.72;;;8.92;100.00
19624;BME280;9959;49.798;9.928;2023-04-29T01:50:57;99255.63;;;8.84;100.00
19624;BME280;9959;49.798;9.928;2023-04-29T01:53:24;99251.28;;;8.83;100.00
19624;BME280;9959;49.798;9.928;2023-04-29T01:55:51;99247.16;;;8.80;100.00
19624;BME280;9959;49.798;9.928;2023-04-29T01:58:18;99245.28;;;8.88;100.00
19624;BME280;9959;49.798;9.928;2023-04-29T02:00:45;99243.22;;;8.83;100.00
19624;BME280;9959;49.798;9.928;2023-04-29T02:03:12;99249.81;;;8.94;100.00
19624;BME280;9959;49.798;9.928;2023-04-29T02:05:39;99255.19;;;8.87;100.00
19624;BME280;9959;49.798;9.928;2023-04-29T02:08:06;99253.56;;;8.79;100.00
19624;BME280;9959;49.798;9.928;2023-04-29T02:10:35;99254.81;;;8.77;100.00
19624;BME280;9959;49.798;9.928;2023-04-29T02:13:02;99252.72;;;8.79;100.00
19624;BME280;9959;49.798;9.928;2023-04-29T02:15:29;99254.78;;;8.83;100.00
19624;BME280;9959;49.798;9.928;2023-04-29T02:17:56;99251.94;;;8.72;100.00
19624;BME280;9959;49.798;9.928;2023-04-29T02:20:23;99260.22;;;8.64;100.00
19624;BME280;9959;49.798;9.928;2023-04-29T02:22:50;99260.22;;;8.70;100.00
19624;BME280;9959;49.798;9.928;2023-04-29T02:25:17;99257.53;;;8.70;100.00
19624;BME280;9959;49.798;9.928;2023-04-29T02:27:44;99266.63;;;8.69;100.00
19624;BME280;9959;49.798;9.928;2023-04-29T02:30:11;99268.47;;;8.62;100.00
19624;BME280;9959;49.798;9.928;2023-04-29T02:32:37;99262.28;;;8.68;100.00
19624;BME280;9959;49.798;9.928;2023-04-29T02:35:05;99258.34;;;8.71;100.00
19624;BME280;9959;49.798;9.928;2023-04-29T02:37:33;99259.59;;;8.68;100.00
19624;BME280;9959;49.798;9.928;2023-04-29T02:40:00;99268.47;;;8.56;100.00
19624;BME280;9959;49.798;9.928;2023-04-29T02:42:27;99263.72;;;8.51;100.00
19624;BME280;9959;49.798;9.928;2023-04-29T02:44:54;99266.81;;;8.68;100.00
19624;BME280;9959;49.798;9.928;2023-04-29T02:47:21;99266.59;;;8.49;100.00
19624;BME280;9959;49.798;9.928;2023-04-29T02:49:48;99260.44;;;8.42;100.00
19624;BME280;9959;49.798;9.928;2023-04-29T02:52:16;99261.66;;;8.60;100.00
19624;BME280;9959;49.798;9.928;2023-04-29T02:54:42;99264.75;;;8.63;100.00
19624;BME280;9959;49.798;9.928;2023-04-29T02:57:09;99270.13;;;8.70;100.00
19624;BME280;9959;49.798;9.928;2023-04-29T02:59:36;99263.94;;;8.63;100.00
19624;BME280;9959;49.798;9.928;2023-04-29T03:02:03;99262.28;;;8.62;100.00
19624;BME280;9959;49.798;9.928;2023-04-29T03:04:30;99268.06;;;8.59;100.00
19624;BME280;9959;49.798;9.928;2023-04-29T03:06:57;99268.06;;;8.59;100.00
19624;BME280;9959;49.798;9.928;2023-04-29T03:09:24;99266.19;;;8.66;100.00
19624;BME280;9959;49.798;9.928;2023-04-29T03:11:51;99263.09;;;8.69;100.00
19624;BME280;9959;49.798;9.928;2023-04-29T03:14:18;99268.03;;;8.78;100.00
19624;BME280;9959;49.798;9.928;2023-04-29T03:16:45;99264.31;;;8.79;100.00
19624;BME280;9959;49.798;9.928;2023-04-29T03:19:12;99270.06;;;8.90;100.00
19624;BME280;9959;49.798;9.928;2023-04-29T03:21:39;99269.66;;;8.93;100.00
19624;BME280;9959;49.798;9.928;2023-04-29T03:24:05;99269.66;;;8.99;100.00
19624;BME280;9959;49.798;9.928;2023-04-29T03:26:32;99274.16;;;9.05;100.00
19624;BME280;9959;49.798;9.928;2023-04-29T03:28:59;99270.63;;;9.11;100.00
19624;BME280;9959;49.798;9.928;2023-04-29T03:31:29;99272.69;;;9.23;100.00
19624;BME280;9959;49.798;9.928;2023-04-29T03:33:56;99276.19;;;9.16;100.00
19624;BME280;9959;49.798;9.928;2023-04-29T03:36:22;99277.63;;;9.26;100.00
19624;BME280;9959;49.798;9.928;2023-04-29T03:38:49;99275.72;;;9.33;100.00
19624;BME280;9959;49.798;9.928;2023-04-29T03:41:16;99272.00;;;9.34;100.00
19624;BME280;9959;49.798;9.928;2023-04-29T03:43:43;99269.31;;;9.34;100.00
19624;BME280;9959;49.798;9.928;2023-04-29T03:46:10;99261.22;;;9.40;100.00
19624;BME280;9959;49.798;9.928;2023-04-29T03:48:37;99267.41;;;9.47;100.00
19624;BME280;9959;49.798;9.928;2023-04-29T03:51:04;99266.16;;;9.50;100.00
19624;BME280;9959;49.798;9.928;2023-04-29T03:53:31;99270.91;;;9.48;100.00
19624;BME280;9959;49.798;9.928;2023-04-29T03:55:58;99277.13;;;9.42;100.00
19624;BME280;9959;49.798;9.928;2023-04-29T03:58:25;99266.59;;;9.40;100.00
19624;BME280;9959;49.798;9.928;2023-04-29T04:00:52;99264.41;;;9.62;100.00
19624;BME280;9959;49.798;9.928;2023-04-29T04:03:19;99275.59;;;9.59;100.00
19624;BME280;9959;49.798;9.928;2023-04-29T04:05:46;99274.69;;;9.78;100.00
19624;BME280;9959;49.798;9.928;2023-04-29T04:08:12;99277.81;;;9.75;100.00
19624;BME280;9959;49.798;9.928;2023-04-29T04:10:39;99284.84;;;9.76;100.00
19624;BME280;9959;49.798;9.928;2023-04-29T04:13:06;99291.25;;;9.75;100.00
19624;BME280;9959;49.798;9.928;2023-04-29T04:15:33;99295.38;;;9.78;100.00
19624;BME280;9959;49.798;9.928;2023-04-29T04:18:00;99302.81;;;9.82;100.00
19624;BME280;9959;49.798;9.928;2023-04-29T04:20:27;99301.78;;;9.83;100.00
19624;BME280;9959;49.798;9.928;2023-04-29T04:22:53;99313.31;;;9.91;100.00
19624;BME280;9959;49.798;9.928;2023-04-29T04:25:20;99308.94;;;9.96;100.00
19624;BME280;9959;49.798;9.928;2023-04-29T04:27:47;99311.84;;;9.95;100.00
19624;BME280;9959;49.798;9.928;2023-04-29T04:30:14;99308.09;;;9.96;100.00
19624;BME280;9959;49.798;9.928;2023-04-29T04:32:41;99307.25;;;10.02;100.00
19624;BME280;9959;49.798;9.928;2023-04-29T04:35:08;99317.38;;;10.06;100.00
19624;BME280;9959;49.798;9.928;2023-04-29T04:37:35;99318.81;;;10.09;100.00
19624;BME280;9959;49.798;9.928;2023-04-29T04:40:02;99319.03;;;10.07;100.00
19624;BME280;9959;49.798;9.928;2023-04-29T04:42:29;99317.56;;;10.11;100.00
19624;BME280;9959;49.798;9.928;2023-04-29T04:44:56;99322.03;;;10.17;100.00
19624;BME280;9959;49.798;9.928;2023-04-29T04:47:23;99319.97;;;10.26;100.00
19624;BME280;9959;49.798;9.928;2023-04-29T04:49:50;99320.97;;;10.32;100.00
19624;BME280;9959;49.798;9.928;2023-04-29T04:52:19;99325.25;;;10.39;100.00
19624;BME280;9959;49.798;9.928;2023-04-29T04:54:47;99323.97;;;10.42;100.00
19624;BME280;9959;49.798;9.928;2023-04-29T04:57:14;99323.09;;;10.48;100.00
19624;BME280;9959;49.798;9.928;2023-04-29T04:59:40;99330.94;;;10.56;100.00
19624;BME280;9959;49.798;9.928;2023-04-29T05:02:08;99332.97;;;10.61;100.00
19624;BME280;9959;49.798;9.928;2023-04-29T05:04:35;99336.25;;;10.63;100.00
19624;BME280;9959;49.798;9.928;2023-04-29T05:07:01;99334.94;;;10.72;100.00
19624;BME280;9959;49.798;9.928;2023-04-29T05:09:28;99333.19;;;10.84;100.00
19624;BME280;9959;49.798;9.928;2023-04-29T05:11:55;99339.69;;;10.95;100.00
19624;BME280;9959;49.798;9.928;2023-04-29T05:14:25;99337.94;;;11.07;100.00
19624;BME280;9959;49.798;9.928;2023-04-29T05:16:52;99346.19;;;11.12;100.00
19624;BME280;9959;49.798;9.928;2023-04-29T05:19:19;99342.94;;;11.22;100.00
19624;BME280;9959;49.798;9.928;2023-04-29T05:21:46;99343.28;;;11.32;100.00
19624;BME280;9959;49.798;9.928;2023-04-29T05:24:13;99345.41;;;11.48;100.00
19624;BME280;9959;49.798;9.928;2023-04-29T05:26:41;99337.81;;;11.57;100.00
19624;BME280;9959;49.798;9.928;2023-04-29T05:29:10;99348.06;;;11.66;100.00
19624;BME280;9959;49.798;9.928;2023-04-29T05:31:37;99348.22;;;11.71;100.00
19624;BME280;9959;49.798;9.928;2023-04-29T05:34:04;99351.53;;;11.73;100.00
19624;BME280;9959;49.798;9.928;2023-04-29T05:36:31;99354.38;;;11.78;100.00
19624;BME280;9959;49.798;9.928;2023-04-29T05:38:58;99354.91;;;11.87;100.00
19624;BME280;9959;49.798;9.928;2023-04-29T05:41:25;99358.19;;;11.89;100.00
19624;BME280;9959;49.798;9.928;2023-04-29T05:43:52;99364.50;;;11.83;100.00
19624;BME280;9959;49.798;9.928;2023-04-29T05:46:19;99377.31;;;11.88;100.00
19624;BME280;9959;49.798;9.928;2023-04-29T05:48:46;99374.47;;;11.82;100.00
19624;BME280;9959;49.798;9.928;2023-04-29T05:51:13;99376.41;;;11.75;100.00
19624;BME280;9959;49.798;9.928;2023-04-29T05:53:40;99378.66;;;11.78;100.00
19624;BME280;9959;49.798;9.928;2023-04-29T05:56:06;99381.97;;;11.99;100.00
19624;BME280;9959;49.798;9.928;2023-04-29T05:58:34;99381.59;;;11.95;100.00
19624;BME280;9959;49.798;9.928;2023-04-29T06:01:01;99385.25;;;12.01;100.00
19624;BME280;9959;49.798;9.928;2023-04-29T06:03:29;99388.59;;;12.14;100.00
19624;BME280;9959;49.798;9.928;2023-04-29T06:05:57;99392.06;;;12.33;100.00
19624;BME280;9959;49.798;9.928;2023-04-29T06:08:24;99395.59;;;12.34;100.00
19624;BME280;9959;49.798;9.928;2023-04-29T06:10:51;99409.66;;;12.24;100.00
19624;BME280;9959;49.798;9.928;2023-04-29T06:13:18;99404.53;;;12.34;100.00
19624;BME280;9959;49.798;9.928;2023-04-29T06:15:44;99412.59;;;12.52;100.00
19624;BME280;9959;49.798;9.928;2023-04-29T06:18:12;99415.16;;;12.47;100.00
19624;BME280;9959;49.798;9.928;2023-04-29T06:20:38;99419.06;;;12.51;98.56
19624;BME280;9959;49.798;9.928;2023-04-29T06:23:05;99420.44;;;12.84;96.79
19624;BME280;9959;49.798;9.928;2023-04-29T06:25:32;99424.66;;;12.80;96.23
19624;BME280;9959;49.798;9.928;2023-04-29T06:27:59;99432.22;;;13.01;94.87
19624;BME280;9959;49.798;9.928;2023-04-29T06:30:26;99434.09;;;13.01;93.38
19624;BME280;9959;49.798;9.928;2023-04-29T06:32:53;99434.41;;;12.93;92.55
19624;BME280;9959;49.798;9.928;2023-04-29T06:35:20;99436.03;;;13.24;91.33
19624;BME280;9959;49.798;9.928;2023-04-29T06:37:47;99443.75;;;13.08;90.64
19624;BME280;9959;49.798;9.928;2023-04-29T06:40:14;99439.59;;;12.94;91.15
19624;BME280;9959;49.798;9.928;2023-04-29T06:42:41;99441.16;;;13.13;90.35
19624;BME280;9959;49.798;9.928;2023-04-29T06:45:09;99442.81;;;13.03;89.74
19624;BME280;9959;49.798;9.928;2023-04-29T06:47:36;99442.25;;;13.12;89.77
19624;BME280;9959;49.798;9.928;2023-04-29T06:50:03;99447.91;;;13.23;89.02
19624;BME280;9959;49.798;9.928;2023-04-29T06:52:30;99453.91;;;13.25;89.39
19624;BME280;9959;49.798;9.928;2023-04-29T06:54:57;99448.16;;;13.33;87.83
19624;BME280;9959;49.798;9.928;2023-04-29T06:57:24;99456.69;;;13.06;88.57
19624;BME280;9959;49.798;9.928;2023-04-29T06:59:51;99456.03;;;13.23;87.68
19624;BME280;9959;49.798;9.928;2023-04-29T07:02:18;99447.34;;;13.67;85.97
19624;BME280;9959;49.798;9.928;2023-04-29T07:04:45;99453.09;;;13.71;84.74
19624;BME280;9959;49.798;9.928;2023-04-29T07:07:12;99452.16;;;13.53;85.46
19624;BME280;9959;49.798;9.928;2023-04-29T07:09:39;99458.41;;;13.54;84.24
19624;BME280;9959;49.798;9.928;2023-04-29T07:12:05;99465.78;;;13.82;80.94
19624;BME280;9959;49.798;9.928;2023-04-29T07:14:32;99452.59;;;13.85;78.56
19624;BME280;9959;49.798;9.928;2023-04-29T07:16:59;99463.09;;;13.94;76.66
19624;BME280;9959;49.798;9.928;2023-04-29T07:19:26;99456.44;;;14.13;76.11
19624;BME280;9959;49.798;9.928;2023-04-29T07:21:53;99471.91;;;13.89;77.23
19624;BME280;9959;49.798;9.928;2023-04-29T07:24:19;99466.34;;;13.96;76.57
19624;BME280;9959;49.798;9.928;2023-04-29T07:26:48;99472.56;;;14.19;75.59
19624;BME280;9959;49.798;9.928;2023-04-29T07:29:15;99472.16;;;14.39;73.74
19624;BME280;9959;49.798;9.928;2023-04-29T07:31:42;99472.22;;;14.56;73.28
19624;BME280;9959;49.798;9.928;2023-04-29T07:34:09;99474.53;;;14.24;71.39
19624;BME280;9959;49.798;9.928;2023-04-29T07:36:36;99464.94;;;14.05;72.90
19624;BME280;9959;49.798;9.928;2023-04-29T07:39:03;99476.00;;;14.15;72.83
19624;BME280;9959;49.798;9.928;2023-04-29T07:41:30;99484.38;;;14.02;72.87
19624;BME280;9959;49.798;9.928;2023-04-29T07:43:57;99479.63;;;14.20;72.55
19624;BME280;9959;49.798;9.928;2023-04-29T07:46:24;99479.59;;;14.32;72.58
19624;BME280;9959;49.798;9.928;2023-04-29T07:48:50;99482.78;;;15.14;68.77
19624;BME280;9959;49.798;9.928;2023-04-29T07:51:18;99491.25;;;15.18;65.94
19624;BME280;9959;49.798;9.928;2023-04-29T07:53:45;99485.09;;;15.22;66.00
19624;BME280;9959;49.798;9.928;2023-04-29T07:56:12;99495.66;;;15.07;66.95
19624;BME280;9959;49.798;9.928;2023-04-29T07:58:39;99501.94;;;15.08;67.63
19624;BME280;9959;49.798;9.928;2023-04-29T08:01:07;99516.03;;;14.76;68.33
19624;BME280;9959;49.798;9.928;2023-04-29T08:03:35;99517.09;;;15.20;66.29
19624;BME280;9959;49.798;9.928;2023-04-29T08:06:06;99510.81;;;15.03;65.84
19624;BME280;9959;49.798;9.928;2023-04-29T08:08:33;99522.66;;;14.69;66.49
19624;BME280;9959;49.798;9.928;2023-04-29T08:11:00;99524.97;;;14.48;66.47
19624;BME280;9959;49.798;9.928;2023-04-29T08:13:27;99529.13;;;14.68;66.19
19624;BME280;9959;49.798;9.928;2023-04-29T08:15:54;99533.59;;;14.74;65.75
19624;BME280;9959;49.798;9.928;2023-04-29T08:18:21;99526.59;;;15.06;64.82
19624;BME280;9959;49.798;9.928;2023-04-29T08:20:47;99533.16;;;14.94;65.37
19624;BME280;9959;49.798;9.928;2023-04-29T08:23:15;99539.78;;;14.86;65.60
19624;BME280;9959;49.798;9.928;2023-04-29T08:25:42;99538.78;;;15.20;64.82
19624;BME280;9959;49.798;9.928;2023-04-29T08:28:10;99535.84;;;15.22;64.03
19624;BME280;9959;49.798;9.928;2023-04-29T08:30:38;99536.31;;;15.36;63.96
19624;BME280;9959;49.798;9.928;2023-04-29T08:33:06;99537.28;;;14.96;64.07
19624;BME280;9959;49.798;9.928;2023-04-29T08:35:34;99544.00;;;14.94;65.21
19624;BME280;9959;49.798;9.928;2023-04-29T08:38:05;99540.53;;;15.27;63.76
19624;BME280;9959;49.798;9.928;2023-04-29T08:40:35;99539.53;;;14.87;64.52
19624;BME280;9959;49.798;9.928;2023-04-29T08:43:07;99547.94;;;15.31;63.50
19624;BME280;9959;49.798;9.928;2023-04-29T08:45:38;99545.34;;;15.08;63.02
19624;BME280;9959;49.798;9.928;2023-04-29T08:48:06;99553.72;;;15.06;62.59
19624;BME280;9959;49.798;9.928;2023-04-29T08:50:37;99552.84;;;15.17;63.25
19624;BME280;9959;49.798;9.928;2023-04-29T08:53:08;99550.47;;;15.38;62.62
19624;BME280;9959;49.798;9.928;2023-04-29T08:55:41;99553.28;;;15.43;62.31
19624;BME280;9959;49.798;9.928;2023-04-29T08:58:09;99559.31;;;15.00;63.66
19624;BME280;9959;49.798;9.928;2023-04-29T09:00:36;99559.44;;;14.93;63.51
19624;BME280;9959;49.798;9.928;2023-04-29T09:03:16;99558.91;;;14.79;64.00
19624;BME280;9959;49.798;9.928;2023-04-29T09:05:48;99564.56;;;14.78;64.56
19624;BME280;9959;49.798;9.928;2023-04-29T09:08:19;99565.72;;;15.10;63.72
19624;BME280;9959;49.798;9.928;2023-04-29T09:10:48;99568.16;;;15.23;63.94
19624;BME280;9959;49.798;9.928;2023-04-29T09:13:23;99564.78;;;15.33;63.87
19624;BME280;9959;49.798;9.928;2023-04-29T09:15:50;99567.69;;;14.98;65.02
19624;BME280;9959;49.798;9.928;2023-04-29T09:21:22;99562.38;;;15.99;60.72
19624;BME280;9959;49.798;9.928;2023-04-29T09:23:52;99571.06;;;16.17;60.98
19624;BME280;9959;49.798;9.928;2023-04-29T09:26:19;99566.94;;;16.15;60.56
19624;BME280;9959;49.798;9.928;2023-04-29T09:29:08;99574.44;;;15.41;63.00
19624;BME280;9959;49.798;9.928;2023-04-29T09:31:39;99574.81;;;15.33;63.94
19624;BME280;9959;49.798;9.928;2023-04-29T09:34:06;99576.06;;;14.68;66.82
19624;BME280;9959;49.798;9.928;2023-04-29T09:36:49;99580.22;;;14.24;68.87
19624;BME280;9959;49.798;9.928;2023-04-29T09:39:20;99588.94;;;14.14;69.59
19624;BME280;9959;49.798;9.928;2023-04-29T09:44:22;99601.06;;;14.35;68.14
19624;BME280;9959;49.798;9.928;2023-04-29T09:47:05;99607.22;;;14.42;69.25
19624;BME280;9959;49.798;9.928;2023-04-29T09:49:34;99607.94;;;14.49;68.78
19624;BME280;9959;49.798;9.928;2023-04-29T09:52:10;99605.94;;;14.45;69.11
19624;BME280;9959;49.798;9.928;2023-04-29T09:54:39;99610.84;;;14.36;68.71
19624;BME280;9959;49.798;9.928;2023-04-29T09:57:08;99611.81;;;14.42;68.95
19624;BME280;9959;49.798;9.928;2023-04-29T09:59:37;99616.28;;;14.48;67.80
19624;BME280;9959;49.798;9.928;2023-04-29T10:02:16;99615.06;;;13.97;70.05
19624;BME280;9959;49.798;9.928;2023-04-29T10:04:52;99615.47;;;14.47;69.02
19624;BME280;9959;49.798;9.928;2023-04-29T10:07:20;99607.44;;;14.52;67.91
19624;BME280;9959;49.798;9.928;2023-04-29T10:09:47;99603.75;;;14.59;66.97
19624;BME280;9959;49.798;9.928;2023-04-29T10:12:16;99604.16;;;14.90;66.66
19624;BME280;9959;49.798;9.928;2023-04-29T10:15:02;99604.38;;;15.01;65.55
19624;BME280;9959;49.798;9.928;2023-04-29T10:17:41;99608.38;;;14.98;64.63
19624;BME280;9959;49.798;9.928;2023-04-29T10:20:13;99607.66;;;15.76;62.37
19624;BME280;9959;49.798;9.928;2023-04-29T10:22:48;99608.47;;;15.94;60.76
19624;BME280;9959;49.798;9.928;2023-04-29T10:25:16;99602.34;;;15.53;62.04
19624;BME280;9959;49.798;9.928;2023-04-29T10:27:44;99600.34;;;15.32;61.93
19624;BME280;9959;49.798;9.928;2023-04-29T10:30:13;99604.13;;;15.31;63.19
19624;BME280;9959;49.798;9.928;2023-04-29T10:32:41;99614.00;;;15.08;63.18
19624;BME280;9959;49.798;9.928;2023-04-29T10:35:18;99615.28;;;14.77;63.58
19624;BME280;9959;49.798;9.928;2023-04-29T10:37:46;99603.69;;;15.22;62.32
19624;BME280;9959;49.798;9.928;2023-04-29T10:40:21;99617.97;;;14.89;63.54
19624;BME280;9959;49.798;9.928;2023-04-29T10:42:51;99610.75;;;14.95;63.00
19624;BME280;9959;49.798;9.928;2023-04-29T10:45:29;99621.75;;;15.16;62.22
19624;BME280;9959;49.798;9.928;2023-04-29T10:48:12;99623.09;;;14.74;63.50
19624;BME280;9959;49.798;9.928;2023-04-29T10:53:13;99619.09;;;14.65;62.84
19624;BME280;9959;49.798;9.928;2023-04-29T10:55:41;99615.63;;;14.81;62.69
19624;BME280;9959;49.798;9.928;2023-04-29T10:58:37;99612.28;;;14.90;62.19
19624;BME280;9959;49.798;9.928;2023-04-29T11:01:05;99619.91;;;15.05;62.88
19624;BME280;9959;49.798;9.928;2023-04-29T11:06:14;99618.97;;;14.60;64.98
19624;BME280;9959;49.798;9.928;2023-04-29T11:08:41;99620.09;;;14.87;64.29
19624;BME280;9959;49.798;9.928;2023-04-29T11:11:08;99615.34;;;14.94;63.88
19624;BME280;9959;49.798;9.928;2023-04-29T11:13:39;99614.09;;;15.13;62.37
19624;BME280;9959;49.798;9.928;2023-04-29T11:16:10;99615.69;;;15.54;61.22
19624;BME280;9959;49.798;9.928;2023-04-29T11:19:15;99622.97;;;15.99;59.39
19624;BME280;9959;49.798;9.928;2023-04-29T11:21:44;99626.94;;;16.47;56.40
19624;BME280;9959;49.798;9.928;2023-04-29T11:24:12;99623.09;;;16.26;57.55
19624;BME280;9959;49.798;9.928;2023-04-29T11:26:41;99616.50;;;16.39;57.82
19624;BME280;9959;49.798;9.928;2023-04-29T11:29:09;99623.38;;;16.08;58.08
19624;BME280;9959;49.798;9.928;2023-04-29T11:31:39;99618.28;;;15.78;58.37
19624;BME280;9959;49.798;9.928;2023-04-29T11:34:06;99628.09;;;16.12;57.31
19624;BME280;9959;49.798;9.928;2023-04-29T11:36:34;99625.97;;;15.52;59.08
19624;BME280;9959;49.798;9.928;2023-04-29T11:39:03;99632.22;;;15.53;59.24
19624;BME280;9959;49.798;9.928;2023-04-29T11:41:30;99632.78;;;15.55;59.39
19624;BME280;9959;49.798;9.928;2023-04-29T11:43:58;99647.72;;;15.12;61.46
19624;BME280;9959;49.798;9.928;2023-04-29T11:46:29;99641.22;;;15.13;61.64
19624;BME280;9959;49.798;9.928;2023-04-29T11:48:57;99653.00;;;14.79;64.07
19624;BME280;9959;49.798;9.928;2023-04-29T11:51:25;99648.56;;;14.73;63.69
19624;BME280;9959;49.798;9.928;2023-04-29T11:53:52;99649.47;;;14.78;64.78
19624;BME280;9959;49.798;9.928;2023-04-29T11:56:22;99657.09;;;14.93;64.60
19624;BME280;9959;49.798;9.928;2023-04-29T11:58:55;99652.81;;;14.57;67.29
19624;BME280;9959;49.798;9.928;2023-04-29T12:01:24;99666.78;;;14.89;66.55
19624;BME280;9959;49.798;9.928;2023-04-29T12:03:56;99670.13;;;14.68;67.29
19624;BME280;9959;49.798;9.928;2023-04-29T12:06:27;99673.34;;;14.41;68.49
19624;BME280;9959;49.798;9.928;2023-04-29T12:08:54;99679.88;;;14.92;66.42
19624;BME280;9959;49.798;9.928;2023-04-29T12:11:24;99666.03;;;14.42;68.14
19624;BME280;9959;49.798;9.928;2023-04-29T12:13:52;99673.78;;;14.62;67.25
19624;BME280;9959;49.798;9.928;2023-04-29T12:16:20;99669.59;;;14.94;64.62
19624;BME280;9959;49.798;9.928;2023-04-29T12:18:51;99664.19;;;14.94;64.38
19624;BME280;9959;49.798;9.928;2023-04-29T12:21:18;99659.84;;;15.21;63.01
19624;BME280;9959;49.798;9.928;2023-04-29T12:23:45;99660.34;;;15.18;61.70
19624;BME280;9959;49.798;9.928;2023-04-29T12:26:13;99662.91;;;15.53;62.31
19624;BME280;9959;49.798;9.928;2023-04-29T12:28:40;99667.09;;;15.33;62.00
19624;BME280;9959;49.798;9.928;2023-04-29T12:31:08;99667.28;;;15.26;62.17
19624;BME280;9959;49.798;9.928;2023-04-29T12:33:36;99673.34;;;15.73;59.08
19624;BME280;9959;49.798;9.928;2023-04-29T12:36:03;99661.31;;;15.69;59.93
19624;BME280;9959;49.798;9.928;2023-04-29T12:38:42;99664.44;;;16.45;57.03
19624;BME280;9959;49.798;9.928;2023-04-29T12:41:08;99663.03;;;16.42;57.21
19624;BME280;9959;49.798;9.928;2023-04-29T12:43:36;99664.72;;;16.10;57.42
19624;BME280;9959;49.798;9.928;2023-04-29T12:46:04;99664.38;;;16.78;55.80
19624;BME280;9959;49.798;9.928;2023-04-29T12:48:32;99662.41;;;16.74;54.79
19624;BME280;9959;49.798;9.928;2023-04-29T12:51:00;99665.91;;;16.52;55.08
19624;BME280;9959;49.798;9.928;2023-04-29T12:53:30;99667.00;;;16.18;55.84
19624;BME280;9959;49.798;9.928;2023-04-29T12:55:58;99680.44;;;16.08;56.53
19624;BME280;9959;49.798;9.928;2023-04-29T12:58:28;99671.78;;;15.77;58.20
19624;BME280;9959;49.798;9.928;2023-04-29T13:00:56;99671.53;;;15.79;58.13
19624;BME280;9959;49.798;9.928;2023-04-29T13:03:23;99673.72;;;16.10;58.74
19624;BME280;9959;49.798;9.928;2023-04-29T13:05:50;99671.53;;;15.79;58.90
19624;BME280;9959;49.798;9.928;2023-04-29T13:08:19;99680.66;;;15.89;58.46
19624;BME280;9959;49.798;9.928;2023-04-29T13:10:46;99673.91;;;15.47;61.06
19624;BME280;9959;49.798;9.928;2023-04-29T13:13:13;99680.03;;;15.14;62.73
19624;BME280;9959;49.798;9.928;2023-04-29T13:15:40;99681.09;;;15.53;61.04
19624;BME280;9959;49.798;9.928;2023-04-29T13:18:08;99676.25;;;15.55;61.04
19624;BME280;9959;49.798;9.928;2023-04-29T13:20:35;99682.41;;;15.10;62.15
19624;BME280;9959;49.798;9.928;2023-04-29T13:23:08;99682.75;;;15.14;63.49
19624;BME280;9959;49.798;9.928;2023-04-29T13:25:35;99679.69;;;15.10;63.54
19624;BME280;9959;49.798;9.928;2023-04-29T13:28:02;99681.47;;;15.45;62.38
19624;BME280;9959;49.798;9.928;2023-04-29T13:30:31;99675.56;;;15.08;63.63
19624;BME280;9959;49.798;9.928;2023-04-29T13:32:58;99677.66;;;15.86;59.06
19624;BME280;9959;49.798;9.928;2023-04-29T13:35:37;99677.16;;;16.06;59.25
19624;BME280;9959;49.798;9.928;2023-04-29T13:38:06;99672.25;;;16.41;58.55
19624;BME280;9959;49.798;9.928;2023-04-29T13:40:33;99672.22;;;16.36;58.91